SFS weather

Coast Guard Air Station San Francisco
San Francisco, Delaware, United States

Public forecast

Using degrees Fahrenheit for public forecast. Weather courtesy of forecast.io.

METAR (pilot weather report)

Closest report is San Francisco International Airport, 1.1 nm (1.9 km) SE. Retrieved 2019/09/21 11:56 UTC (21 minutes ago):

KSFO 211156Z 26004KT 10SM CLR 17/12 A2994 RMK AO2 SLP137 T01670117 10211 20161 53002

TAF (pilot weather forecast)

Closest forecast is San Francisco International Airport, 1.1 nm (1.9 km) SE. Retrieved 2019/09/21 12:28 UTC (0 seconds ago):

TAF KSFO 211126Z 2112/2218 VRB03KT P6SM SKC FM211500 06004KT P6SM SKC FM212100 29013KT P6SM SKC FM212300 29016KT P6SM SKC FM220400 29008KT P6SM FEW006 FM220800 28004KT P6SM SCT005 FM221600 26008KT P6SM FEW008